sensor_id;sensor_type;location;lat;lon;timestamp;P1;durP1;ratioP1;P2;durP2;ratioP2
9745;SDS011;4912;50.836;12.958;2024-02-26T00:01:23;22.58;;;13.98;;
9745;SDS011;4912;50.836;12.958;2024-02-26T00:06:29;20.67;;;13.18;;
9745;SDS011;4912;50.836;12.958;2024-02-26T00:09:00;23.27;;;13.13;;
9745;SDS011;4912;50.836;12.958;2024-02-26T00:11:33;21.08;;;13.55;;
9745;SDS011;4912;50.836;12.958;2024-02-26T00:14:05;22.10;;;14.70;;
9745;SDS011;4912;50.836;12.958;2024-02-26T00:16:39;23.42;;;14.20;;
9745;SDS011;4912;50.836;12.958;2024-02-26T00:19:12;20.80;;;13.55;;
9745;SDS011;4912;50.836;12.958;2024-02-26T00:21:45;20.77;;;13.25;;
9745;SDS011;4912;50.836;12.958;2024-02-26T00:24:17;38.00;;;22.40;;
9745;SDS011;4912;50.836;12.958;2024-02-26T00:26:47;29.58;;;17.35;;
9745;SDS011;4912;50.836;12.958;2024-02-26T00:29:21;22.00;;;14.35;;
9745;SDS011;4912;50.836;12.958;2024-02-26T00:34:23;22.52;;;13.27;;
9745;SDS011;4912;50.836;12.958;2024-02-26T00:36:57;23.00;;;13.25;;
9745;SDS011;4912;50.836;12.958;2024-02-26T00:39:28;23.08;;;13.85;;
9745;SDS011;4912;50.836;12.958;2024-02-26T00:42:00;21.85;;;14.10;;
9745;SDS011;4912;50.836;12.958;2024-02-26T00:44:31;21.63;;;12.73;;
9745;SDS011;4912;50.836;12.958;2024-02-26T00:47:02;26.02;;;15.80;;
9745;SDS011;4912;50.836;12.958;2024-02-26T00:52:06;20.70;;;13.77;;
9745;SDS011;4912;50.836;12.958;2024-02-26T00:54:37;21.65;;;12.52;;
9745;SDS011;4912;50.836;12.958;2024-02-26T00:57:08;21.40;;;13.18;;
9745;SDS011;4912;50.836;12.958;2024-02-26T00:59:39;21.17;;;13.48;;
9745;SDS011;4912;50.836;12.958;2024-02-26T01:02:10;20.58;;;11.95;;
9745;SDS011;4912;50.836;12.958;2024-02-26T01:04:43;21.02;;;12.80;;
9745;SDS011;4912;50.836;12.958;2024-02-26T01:07:17;22.15;;;14.30;;
9745;SDS011;4912;50.836;12.958;2024-02-26T01:09:49;19.48;;;12.73;;
9745;SDS011;4912;50.836;12.958;2024-02-26T01:12:20;32.40;;;18.13;;
9745;SDS011;4912;50.836;12.958;2024-02-26T01:17:22;21.10;;;12.95;;
9745;SDS011;4912;50.836;12.958;2024-02-26T01:22:27;24.33;;;13.75;;
9745;SDS011;4912;50.836;12.958;2024-02-26T01:24:58;23.17;;;13.65;;
9745;SDS011;4912;50.836;12.958;2024-02-26T01:27:29;22.00;;;14.20;;
9745;SDS011;4912;50.836;12.958;2024-02-26T01:30:00;23.25;;;14.38;;
9745;SDS011;4912;50.836;12.958;2024-02-26T01:32:31;23.05;;;13.68;;
9745;SDS011;4912;50.836;12.958;2024-02-26T01:35:03;24.05;;;13.85;;
9745;SDS011;4912;50.836;12.958;2024-02-26T01:37:40;24.50;;;15.38;;
9745;SDS011;4912;50.836;12.958;2024-02-26T01:40:12;24.23;;;14.27;;
9745;SDS011;4912;50.836;12.958;2024-02-26T01:42:46;21.60;;;13.50;;
9745;SDS011;4912;50.836;12.958;2024-02-26T01:45:17;23.83;;;13.55;;
9745;SDS011;4912;50.836;12.958;2024-02-26T01:47:52;23.42;;;13.45;;
9745;SDS011;4912;50.836;12.958;2024-02-26T01:50:24;25.40;;;14.00;;
9745;SDS011;4912;50.836;12.958;2024-02-26T01:52:59;25.30;;;13.98;;
9745;SDS011;4912;50.836;12.958;2024-02-26T01:55:36;22.67;;;14.38;;
9745;SDS011;4912;50.836;12.958;2024-02-26T01:58:07;20.80;;;12.20;;
9745;SDS011;4912;50.836;12.958;2024-02-26T02:00:38;22.25;;;12.70;;
9745;SDS011;4912;50.836;12.958;2024-02-26T02:03:09;25.08;;;14.05;;
9745;SDS011;4912;50.836;12.958;2024-02-26T02:05:40;23.52;;;12.88;;
9745;SDS011;4912;50.836;12.958;2024-02-26T02:08:15;23.23;;;14.48;;
9745;SDS011;4912;50.836;12.958;2024-02-26T02:10:45;22.67;;;12.90;;
9745;SDS011;4912;50.836;12.958;2024-02-26T02:13:17;21.77;;;12.98;;
9745;SDS011;4912;50.836;12.958;2024-02-26T02:15:47;22.38;;;13.13;;
9745;SDS011;4912;50.836;12.958;2024-02-26T02:18:18;21.25;;;12.75;;
9745;SDS011;4912;50.836;12.958;2024-02-26T02:23:26;19.75;;;11.77;;
9745;SDS011;4912;50.836;12.958;2024-02-26T02:25:57;20.23;;;12.88;;
9745;SDS011;4912;50.836;12.958;2024-02-26T02:28:28;21.98;;;12.63;;
9745;SDS011;4912;50.836;12.958;2024-02-26T02:30:59;21.65;;;13.18;;
9745;SDS011;4912;50.836;12.958;2024-02-26T02:33:30;20.75;;;12.82;;
9745;SDS011;4912;50.836;12.958;2024-02-26T02:36:07;22.40;;;13.40;;
9745;SDS011;4912;50.836;12.958;2024-02-26T02:38:41;22.30;;;13.23;;
9745;SDS011;4912;50.836;12.958;2024-02-26T02:41:19;22.17;;;13.45;;
9745;SDS011;4912;50.836;12.958;2024-02-26T02:43:50;24.30;;;13.90;;
9745;SDS011;4912;50.836;12.958;2024-02-26T02:46:21;22.45;;;13.63;;
9745;SDS011;4912;50.836;12.958;2024-02-26T02:48:52;19.73;;;12.35;;
9745;SDS011;4912;50.836;12.958;2024-02-26T02:51:27;21.40;;;12.15;;
9745;SDS011;4912;50.836;12.958;2024-02-26T02:53:58;22.25;;;12.52;;
9745;SDS011;4912;50.836;12.958;2024-02-26T02:56:29;20.60;;;11.90;;
9745;SDS011;4912;50.836;12.958;2024-02-26T02:59:00;19.95;;;11.90;;
9745;SDS011;4912;50.836;12.958;2024-02-26T03:01:34;20.38;;;11.95;;
9745;SDS011;4912;50.836;12.958;2024-02-26T03:04:05;20.85;;;11.95;;
9745;SDS011;4912;50.836;12.958;2024-02-26T03:06:39;20.85;;;11.60;;
9745;SDS011;4912;50.836;12.958;2024-02-26T03:09:10;19.80;;;11.40;;
9745;SDS011;4912;50.836;12.958;2024-02-26T03:11:40;21.38;;;12.07;;
9745;SDS011;4912;50.836;12.958;2024-02-26T03:14:14;22.85;;;11.68;;
9745;SDS011;4912;50.836;12.958;2024-02-26T03:16:44;17.95;;;10.85;;
9745;SDS011;4912;50.836;12.958;2024-02-26T03:19:16;18.23;;;10.63;;
9745;SDS011;4912;50.836;12.958;2024-02-26T03:21:49;18.30;;;11.10;;
9745;SDS011;4912;50.836;12.958;2024-02-26T03:24:20;17.70;;;10.73;;
9745;SDS011;4912;50.836;12.958;2024-02-26T03:26:50;18.58;;;10.95;;
9745;SDS011;4912;50.836;12.958;2024-02-26T03:29:21;20.80;;;11.32;;
9745;SDS011;4912;50.836;12.958;2024-02-26T03:31:52;18.55;;;9.98;;
9745;SDS011;4912;50.836;12.958;2024-02-26T03:34:23;16.15;;;9.63;;
9745;SDS011;4912;50.836;12.958;2024-02-26T03:36:57;15.50;;;9.43;;
9745;SDS011;4912;50.836;12.958;2024-02-26T03:39:27;15.80;;;9.30;;
9745;SDS011;4912;50.836;12.958;2024-02-26T03:41:58;16.30;;;9.55;;
9745;SDS011;4912;50.836;12.958;2024-02-26T03:44:29;16.63;;;9.85;;
9745;SDS011;4912;50.836;12.958;2024-02-26T03:47:00;15.90;;;9.25;;
9745;SDS011;4912;50.836;12.958;2024-02-26T03:49:30;17.83;;;11.15;;
9745;SDS011;4912;50.836;12.958;2024-02-26T03:52:04;70.10;;;40.63;;
9745;SDS011;4912;50.836;12.958;2024-02-26T03:54:35;25.63;;;16.43;;
9745;SDS011;4912;50.836;12.958;2024-02-26T03:57:06;14.68;;;9.07;;
9745;SDS011;4912;50.836;12.958;2024-02-26T03:59:37;15.13;;;9.57;;
9745;SDS011;4912;50.836;12.958;2024-02-26T04:04:39;17.05;;;10.68;;
9745;SDS011;4912;50.836;12.958;2024-02-26T04:07:13;23.45;;;10.80;;
9745;SDS011;4912;50.836;12.958;2024-02-26T04:12:17;52.60;;;31.35;;
9745;SDS011;4912;50.836;12.958;2024-02-26T04:14:52;54.45;;;32.67;;
9745;SDS011;4912;50.836;12.958;2024-02-26T04:17:23;20.13;;;12.65;;
9745;SDS011;4912;50.836;12.958;2024-02-26T04:19:54;17.98;;;10.73;;
9745;SDS011;4912;50.836;12.958;2024-02-26T04:22:28;17.95;;;9.88;;
9745;SDS011;4912;50.836;12.958;2024-02-26T04:24:58;14.80;;;9.82;;
9745;SDS011;4912;50.836;12.958;2024-02-26T04:27:30;15.38;;;10.13;;
9745;SDS011;4912;50.836;12.958;2024-02-26T04:30:01;17.50;;;11.02;;
9745;SDS011;4912;50.836;12.958;2024-02-26T04:32:33;16.23;;;10.88;;
9745;SDS011;4912;50.836;12.958;2024-02-26T04:35:04;17.40;;;9.40;;
9745;SDS011;4912;50.836;12.958;2024-02-26T04:37:41;19.77;;;10.10;;
9745;SDS011;4912;50.836;12.958;2024-02-26T04:40:12;17.20;;;10.15;;
9745;SDS011;4912;50.836;12.958;2024-02-26T04:42:43;21.15;;;12.70;;
9745;SDS011;4912;50.836;12.958;2024-02-26T04:45:14;22.15;;;11.05;;
9745;SDS011;4912;50.836;12.958;2024-02-26T04:47:47;21.00;;;11.27;;
9745;SDS011;4912;50.836;12.958;2024-02-26T04:50:18;19.15;;;11.52;;
9745;SDS011;4912;50.836;12.958;2024-02-26T04:52:52;16.88;;;10.73;;
9745;SDS011;4912;50.836;12.958;2024-02-26T04:55:23;18.92;;;10.55;;
9745;SDS011;4912;50.836;12.958;2024-02-26T04:57:53;20.70;;;11.75;;
9745;SDS011;4912;50.836;12.958;2024-02-26T05:00:24;20.33;;;11.10;;
9745;SDS011;4912;50.836;12.958;2024-02-26T05:02:55;19.65;;;12.20;;
9745;SDS011;4912;50.836;12.958;2024-02-26T05:05:26;22.90;;;11.38;;
9745;SDS011;4912;50.836;12.958;2024-02-26T05:08:00;20.77;;;11.93;;
9745;SDS011;4912;50.836;12.958;2024-02-26T05:10:31;20.40;;;11.85;;
9745;SDS011;4912;50.836;12.958;2024-02-26T05:13:06;19.90;;;11.98;;
9745;SDS011;4912;50.836;12.958;2024-02-26T05:15:37;19.60;;;11.57;;
9745;SDS011;4912;50.836;12.958;2024-02-26T05:18:08;22.75;;;12.90;;
9745;SDS011;4912;50.836;12.958;2024-02-26T05:20:38;22.08;;;11.30;;
9745;SDS011;4912;50.836;12.958;2024-02-26T05:23:14;19.17;;;11.52;;
9745;SDS011;4912;50.836;12.958;2024-02-26T05:25:48;21.27;;;11.77;;
9745;SDS011;4912;50.836;12.958;2024-02-26T05:30:50;20.33;;;11.83;;
9745;SDS011;4912;50.836;12.958;2024-02-26T05:33:20;19.13;;;11.10;;
9745;SDS011;4912;50.836;12.958;2024-02-26T05:35:52;19.13;;;11.10;;
9745;SDS011;4912;50.836;12.958;2024-02-26T05:38:25;18.08;;;10.57;;
9745;SDS011;4912;50.836;12.958;2024-02-26T05:40:56;19.17;;;10.90;;
9745;SDS011;4912;50.836;12.958;2024-02-26T05:43:27;18.23;;;10.70;;
9745;SDS011;4912;50.836;12.958;2024-02-26T05:45:58;18.20;;;10.77;;
9745;SDS011;4912;50.836;12.958;2024-02-26T05:48:28;19.65;;;10.98;;
9745;SDS011;4912;50.836;12.958;2024-02-26T05:50:59;17.45;;;10.60;;
9745;SDS011;4912;50.836;12.958;2024-02-26T05:53:33;19.15;;;10.82;;
9745;SDS011;4912;50.836;12.958;2024-02-26T05:56:04;20.63;;;11.38;;
9745;SDS011;4912;50.836;12.958;2024-02-26T05:58:41;19.23;;;11.55;;
9745;SDS011;4912;50.836;12.958;2024-02-26T06:01:12;16.15;;;9.98;;
9745;SDS011;4912;50.836;12.958;2024-02-26T06:03:45;17.88;;;10.55;;
9745;SDS011;4912;50.836;12.958;2024-02-26T06:06:16;19.00;;;11.07;;
9745;SDS011;4912;50.836;12.958;2024-02-26T06:08:52;19.33;;;10.70;;
9745;SDS011;4912;50.836;12.958;2024-02-26T06:11:20;21.23;;;10.57;;
9745;SDS011;4912;50.836;12.958;2024-02-26T06:13:51;21.75;;;11.02;;
9745;SDS011;4912;50.836;12.958;2024-02-26T06:16:22;19.63;;;11.43;;
9745;SDS011;4912;50.836;12.958;2024-02-26T06:18:52;15.02;;;9.70;;
9745;SDS011;4912;50.836;12.958;2024-02-26T06:21:23;17.42;;;9.35;;
9745;SDS011;4912;50.836;12.958;2024-02-26T06:23:57;16.70;;;9.23;;
9745;SDS011;4912;50.836;12.958;2024-02-26T06:26:28;17.15;;;9.73;;
9745;SDS011;4912;50.836;12.958;2024-02-26T06:28:56;13.55;;;8.52;;
9745;SDS011;4912;50.836;12.958;2024-02-26T06:31:26;15.60;;;8.88;;
9745;SDS011;4912;50.836;12.958;2024-02-26T06:33:57;14.95;;;8.77;;
9745;SDS011;4912;50.836;12.958;2024-02-26T06:36:28;16.52;;;8.70;;
9745;SDS011;4912;50.836;12.958;2024-02-26T06:39:01;19.73;;;9.48;;
9745;SDS011;4912;50.836;12.958;2024-02-26T06:41:32;13.95;;;8.63;;
9745;SDS011;4912;50.836;12.958;2024-02-26T06:44:03;14.07;;;8.70;;
9745;SDS011;4912;50.836;12.958;2024-02-26T06:46:34;14.25;;;8.73;;
9745;SDS011;4912;50.836;12.958;2024-02-26T06:49:05;13.57;;;8.55;;
9745;SDS011;4912;50.836;12.958;2024-02-26T06:51:36;13.98;;;8.32;;
9745;SDS011;4912;50.836;12.958;2024-02-26T06:54:12;15.32;;;8.73;;
9745;SDS011;4912;50.836;12.958;2024-02-26T06:56:43;17.83;;;10.43;;
9745;SDS011;4912;50.836;12.958;2024-02-26T06:59:16;16.15;;;8.30;;
9745;SDS011;4912;50.836;12.958;2024-02-26T07:01:47;12.73;;;8.65;;
9745;SDS011;4912;50.836;12.958;2024-02-26T07:04:17;14.43;;;8.55;;
9745;SDS011;4912;50.836;12.958;2024-02-26T07:06:48;16.77;;;8.93;;
9745;SDS011;4912;50.836;12.958;2024-02-26T07:09:22;14.45;;;8.95;;
9745;SDS011;4912;50.836;12.958;2024-02-26T07:11:52;16.83;;;9.13;;
9745;SDS011;4912;50.836;12.958;2024-02-26T07:14:27;12.27;;;7.47;;
9745;SDS011;4912;50.836;12.958;2024-02-26T07:17:00;13.60;;;8.88;;
9745;SDS011;4912;50.836;12.958;2024-02-26T07:19:30;15.13;;;9.00;;
9745;SDS011;4912;50.836;12.958;2024-02-26T07:22:01;12.98;;;8.95;;
9745;SDS011;4912;50.836;12.958;2024-02-26T07:24:34;17.63;;;9.55;;
9745;SDS011;4912;50.836;12.958;2024-02-26T07:27:05;16.70;;;10.10;;
9745;SDS011;4912;50.836;12.958;2024-02-26T07:29:36;14.45;;;9.93;;
9745;SDS011;4912;50.836;12.958;2024-02-26T07:32:06;14.18;;;9.27;;
9745;SDS011;4912;50.836;12.958;2024-02-26T07:34:37;16.38;;;9.15;;
9745;SDS011;4912;50.836;12.958;2024-02-26T07:37:08;15.88;;;9.15;;
9745;SDS011;4912;50.836;12.958;2024-02-26T07:39:42;15.38;;;9.60;;
9745;SDS011;4912;50.836;12.958;2024-02-26T07:42:12;13.82;;;8.93;;
9745;SDS011;4912;50.836;12.958;2024-02-26T07:44:43;16.58;;;9.70;;
9745;SDS011;4912;50.836;12.958;2024-02-26T07:47:14;13.70;;;9.05;;
9745;SDS011;4912;50.836;12.958;2024-02-26T07:49:44;13.70;;;8.57;;
9745;SDS011;4912;50.836;12.958;2024-02-26T07:52:15;11.98;;;7.78;;
9745;SDS011;4912;50.836;12.958;2024-02-26T07:54:48;13.02;;;8.20;;
9745;SDS011;4912;50.836;12.958;2024-02-26T07:57:19;13.70;;;7.93;;
9745;SDS011;4912;50.836;12.958;2024-02-26T07:59:50;14.40;;;8.15;;
9745;SDS011;4912;50.836;12.958;2024-02-26T08:02:21;13.20;;;8.13;;
9745;SDS011;4912;50.836;12.958;2024-02-26T08:04:51;11.32;;;7.68;;
9745;SDS011;4912;50.836;12.958;2024-02-26T08:07:22;14.70;;;7.30;;
9745;SDS011;4912;50.836;12.958;2024-02-26T08:09:55;12.55;;;8.32;;
9745;SDS011;4912;50.836;12.958;2024-02-26T08:12:26;12.18;;;8.10;;
9745;SDS011;4912;50.836;12.958;2024-02-26T08:14:57;12.85;;;7.90;;
9745;SDS011;4912;50.836;12.958;2024-02-26T08:17:28;13.45;;;7.70;;
9745;SDS011;4912;50.836;12.958;2024-02-26T08:20:00;10.25;;;7.55;;
9745;SDS011;4912;50.836;12.958;2024-02-26T08:22:31;10.63;;;7.50;;
9745;SDS011;4912;50.836;12.958;2024-02-26T08:25:05;10.27;;;6.90;;
9745;SDS011;4912;50.836;12.958;2024-02-26T08:27:36;9.85;;;7.07;;
9745;SDS011;4912;50.836;12.958;2024-02-26T08:30:12;11.15;;;7.32;;
9745;SDS011;4912;50.836;12.958;2024-02-26T08:32:44;11.88;;;7.80;;
9745;SDS011;4912;50.836;12.958;2024-02-26T08:35:18;12.05;;;7.45;;
9745;SDS011;4912;50.836;12.958;2024-02-26T08:37:49;11.82;;;8.10;;
9745;SDS011;4912;50.836;12.958;2024-02-26T08:40:22;11.05;;;7.88;;
9745;SDS011;4912;50.836;12.958;2024-02-26T08:42:53;10.40;;;6.88;;
9745;SDS011;4912;50.836;12.958;2024-02-26T08:45:24;10.25;;;6.43;;
9745;SDS011;4912;50.836;12.958;2024-02-26T08:47:56;11.38;;;6.75;;
9745;SDS011;4912;50.836;12.958;2024-02-26T08:50:28;10.60;;;6.97;;
9745;SDS011;4912;50.836;12.958;2024-02-26T08:52:58;10.65;;;6.30;;
9745;SDS011;4912;50.836;12.958;2024-02-26T08:55:36;11.30;;;6.60;;
9745;SDS011;4912;50.836;12.958;2024-02-26T08:58:07;10.93;;;7.57;;
9745;SDS011;4912;50.836;12.958;2024-02-26T09:00:37;12.98;;;8.13;;
9745;SDS011;4912;50.836;12.958;2024-02-26T09:03:08;12.57;;;7.68;;
9745;SDS011;4912;50.836;12.958;2024-02-26T09:05:39;11.70;;;7.22;;
9745;SDS011;4912;50.836;12.958;2024-02-26T09:08:10;9.90;;;6.47;;
9745;SDS011;4912;50.836;12.958;2024-02-26T09:13:13;10.43;;;6.88;;
9745;SDS011;4912;50.836;12.958;2024-02-26T09:15:45;10.90;;;6.70;;
9745;SDS011;4912;50.836;12.958;2024-02-26T09:20:46;9.48;;;6.15;;
9745;SDS011;4912;50.836;12.958;2024-02-26T09:23:20;11.20;;;6.07;;
9745;SDS011;4912;50.836;12.958;2024-02-26T09:28:24;30.50;;;22.67;;
9745;SDS011;4912;50.836;12.958;2024-02-26T09:30:54;12.63;;;9.02;;
9745;SDS011;4912;50.836;12.958;2024-02-26T09:33:25;9.45;;;6.07;;
9745;SDS011;4912;50.836;12.958;2024-02-26T09:35:56;9.13;;;5.60;;
9745;SDS011;4912;50.836;12.958;2024-02-26T09:38:27;7.80;;;5.35;;
9745;SDS011;4912;50.836;12.958;2024-02-26T09:41:20;10.90;;;6.07;;
9745;SDS011;4912;50.836;12.958;2024-02-26T09:43:51;9.18;;;5.72;;
9745;SDS011;4912;50.836;12.958;2024-02-26T09:46:27;10.45;;;5.38;;
9745;SDS011;4912;50.836;12.958;2024-02-26T09:49:00;8.25;;;5.72;;
9745;SDS011;4912;50.836;12.958;2024-02-26T09:51:35;11.07;;;8.00;;
9745;SDS011;4912;50.836;12.958;2024-02-26T09:54:07;11.30;;;7.65;;
9745;SDS011;4912;50.836;12.958;2024-02-26T09:56:47;8.40;;;5.63;;
9745;SDS011;4912;50.836;12.958;2024-02-26T09:59:32;9.23;;;5.53;;
9745;SDS011;4912;50.836;12.958;2024-02-26T10:02:11;10.02;;;5.72;;
9745;SDS011;4912;50.836;12.958;2024-02-26T10:04:43;7.93;;;5.57;;
9745;SDS011;4912;50.836;12.958;2024-02-26T10:07:17;9.57;;;5.55;;
9745;SDS011;4912;50.836;12.958;2024-02-26T10:09:49;10.55;;;6.10;;
9745;SDS011;4912;50.836;12.958;2024-02-26T10:12:23;7.28;;;5.43;;
9745;SDS011;4912;50.836;12.958;2024-02-26T10:14:55;9.75;;;6.43;;
9745;SDS011;4912;50.836;12.958;2024-02-26T10:17:26;10.45;;;6.05;;
9745;SDS011;4912;50.836;12.958;2024-02-26T10:20:05;9.57;;;5.90;;
9745;SDS011;4912;50.836;12.958;2024-02-26T10:22:43;8.65;;;5.53;;
9745;SDS011;4912;50.836;12.958;2024-02-26T10:25:14;9.85;;;5.10;;
9745;SDS011;4912;50.836;12.958;2024-02-26T10:27:49;7.55;;;4.82;;
9745;SDS011;4912;50.836;12.958;2024-02-26T10:30:20;8.50;;;5.50;;
9745;SDS011;4912;50.836;12.958;2024-02-26T10:32:56;7.88;;;4.95;;
9745;SDS011;4912;50.836;12.958;2024-02-26T10:35:27;7.35;;;5.00;;
9745;SDS011;4912;50.836;12.958;2024-02-26T10:37:58;6.55;;;4.63;;
9745;SDS011;4912;50.836;12.958;2024-02-26T10:40:30;10.20;;;5.28;;
9745;SDS011;4912;50.836;12.958;2024-02-26T10:43:04;8.20;;;4.93;;
9745;SDS011;4912;50.836;12.958;2024-02-26T10:45:35;7.93;;;5.55;;
9745;SDS011;4912;50.836;12.958;2024-02-26T10:48:09;9.20;;;4.90;;
9745;SDS011;4912;50.836;12.958;2024-02-26T10:50:44;7.97;;;4.63;;
9745;SDS011;4912;50.836;12.958;2024-02-26T10:53:16;7.80;;;5.03;;
9745;SDS011;4912;50.836;12.958;2024-02-26T10:55:52;6.95;;;4.80;;
9745;SDS011;4912;50.836;12.958;2024-02-26T10:58:27;7.53;;;4.95;;
9745;SDS011;4912;50.836;12.958;2024-02-26T11:00:59;7.03;;;4.35;;
9745;SDS011;4912;50.836;12.958;2024-02-26T11:03:31;6.43;;;4.35;;
9745;SDS011;4912;50.836;12.958;2024-02-26T11:06:04;7.93;;;4.60;;
9745;SDS011;4912;50.836;12.958;2024-02-26T11:08:37;8.80;;;4.50;;
9745;SDS011;4912;50.836;12.958;2024-02-26T11:11:08;7.43;;;4.57;;
9745;SDS011;4912;50.836;12.958;2024-02-26T11:13:45;8.20;;;5.10;;
9745;SDS011;4912;50.836;12.958;2024-02-26T11:16:18;6.72;;;4.40;;
9745;SDS011;4912;50.836;12.958;2024-02-26T11:18:49;7.38;;;4.90;;
9745;SDS011;4912;50.836;12.958;2024-02-26T11:21:22;6.18;;;4.45;;
9745;SDS011;4912;50.836;12.958;2024-02-26T11:23:57;8.43;;;4.20;;
9745;SDS011;4912;50.836;12.958;2024-02-26T11:26:28;6.82;;;4.60;;
9745;SDS011;4912;50.836;12.958;2024-02-26T11:29:01;8.73;;;5.05;;
9745;SDS011;4912;50.836;12.958;2024-02-26T11:31:33;5.93;;;4.10;;
9745;SDS011;4912;50.836;12.958;2024-02-26T11:34:06;7.97;;;4.60;;
9745;SDS011;4912;50.836;12.958;2024-02-26T11:36:38;7.50;;;4.90;;
9745;SDS011;4912;50.836;12.958;2024-02-26T11:39:10;7.50;;;4.90;;
9745;SDS011;4912;50.836;12.958;2024-02-26T11:41:44;7.80;;;5.38;;
9745;SDS011;4912;50.836;12.958;2024-02-26T11:46:58;7.20;;;4.35;;
9745;SDS011;4912;50.836;12.958;2024-02-26T11:49:30;5.80;;;4.25;;
9745;SDS011;4912;50.836;12.958;2024-02-26T11:52:04;8.50;;;4.50;;
9745;SDS011;4912;50.836;12.958;2024-02-26T11:54:43;7.50;;;4.80;;
9745;SDS011;4912;50.836;12.958;2024-02-26T11:57:22;12.40;;;8.15;;
9745;SDS011;4912;50.836;12.958;2024-02-26T12:00:13;8.45;;;6.35;;
9745;SDS011;4912;50.836;12.958;2024-02-26T12:02:50;8.73;;;4.82;;
9745;SDS011;4912;50.836;12.958;2024-02-26T12:05:25;7.25;;;3.92;;
9745;SDS011;4912;50.836;12.958;2024-02-26T12:07:59;6.65;;;4.50;;
9745;SDS011;4912;50.836;12.958;2024-02-26T12:10:35;6.57;;;4.65;;
9745;SDS011;4912;50.836;12.958;2024-02-26T12:13:10;8.32;;;5.47;;
9745;SDS011;4912;50.836;12.958;2024-02-26T12:15:54;7.18;;;4.32;;
9745;SDS011;4912;50.836;12.958;2024-02-26T12:18:27;13.88;;;9.82;;
9745;SDS011;4912;50.836;12.958;2024-02-26T12:21:00;11.85;;;6.85;;
9745;SDS011;4912;50.836;12.958;2024-02-26T12:23:32;8.15;;;5.10;;
9745;SDS011;4912;50.836;12.958;2024-02-26T12:28:36;7.88;;;4.38;;
9745;SDS011;4912;50.836;12.958;2024-02-26T12:33:41;6.95;;;4.13;;
9745;SDS011;4912;50.836;12.958;2024-02-26T12:36:12;8.98;;;5.60;;
9745;SDS011;4912;50.836;12.958;2024-02-26T12:38:43;6.80;;;4.70;;
9745;SDS011;4912;50.836;12.958;2024-02-26T12:41:14;6.68;;;4.32;;
9745;SDS011;4912;50.836;12.958;2024-02-26T12:43:46;8.00;;;4.53;;
9745;SDS011;4912;50.836;12.958;2024-02-26T12:46:19;8.00;;;5.30;;
9745;SDS011;4912;50.836;12.958;2024-02-26T12:48:51;9.63;;;5.60;;
9745;SDS011;4912;50.836;12.958;2024-02-26T12:51:24;10.65;;;4.85;;
9745;SDS011;4912;50.836;12.958;2024-02-26T12:53:56;7.05;;;4.22;;
9745;SDS011;4912;50.836;12.958;2024-02-26T12:56:27;8.02;;;4.82;;
9745;SDS011;4912;50.836;12.958;2024-02-26T12:58:58;7.25;;;4.93;;
9745;SDS011;4912;50.836;12.958;2024-02-26T13:01:32;9.80;;;5.85;;
9745;SDS011;4912;50.836;12.958;2024-02-26T13:04:04;9.30;;;5.45;;
9745;SDS011;4912;50.836;12.958;2024-02-26T13:06:35;7.75;;;5.20;;
9745;SDS011;4912;50.836;12.958;2024-02-26T13:09:06;12.05;;;5.93;;
9745;SDS011;4912;50.836;12.958;2024-02-26T13:11:39;8.30;;;5.65;;
9745;SDS011;4912;50.836;12.958;2024-02-26T13:14:18;10.20;;;6.30;;
9745;SDS011;4912;50.836;12.958;2024-02-26T13:16:57;8.80;;;5.55;;
9745;SDS011;4912;50.836;12.958;2024-02-26T13:19:28;11.43;;;6.43;;
9745;SDS011;4912;50.836;12.958;2024-02-26T13:22:03;8.30;;;5.22;;
9745;SDS011;4912;50.836;12.958;2024-02-26T13:24:35;9.00;;;5.88;;
9745;SDS011;4912;50.836;12.958;2024-02-26T13:27:06;9.63;;;5.65;;
9745;SDS011;4912;50.836;12.958;2024-02-26T13:29:38;7.65;;;5.25;;
9745;SDS011;4912;50.836;12.958;2024-02-26T13:34:42;11.52;;;6.47;;
9745;SDS011;4912;50.836;12.958;2024-02-26T13:37:13;14.63;;;7.40;;
9745;SDS011;4912;50.836;12.958;2024-02-26T13:42:14;13.52;;;7.65;;
9745;SDS011;4912;50.836;12.958;2024-02-26T13:47:18;10.73;;;7.73;;
9745;SDS011;4912;50.836;12.958;2024-02-26T13:49:49;13.82;;;7.90;;
9745;SDS011;4912;50.836;12.958;2024-02-26T13:52:20;14.60;;;8.60;;
9745;SDS011;4912;50.836;12.958;2024-02-26T13:54:52;13.77;;;7.88;;
9745;SDS011;4912;50.836;12.958;2024-02-26T13:57:23;12.70;;;7.38;;
9745;SDS011;4912;50.836;12.958;2024-02-26T13:59:54;10.27;;;7.25;;
9745;SDS011;4912;50.836;12.958;2024-02-26T14:02:29;15.30;;;8.05;;
9745;SDS011;4912;50.836;12.958;2024-02-26T14:05:01;12.52;;;8.77;;
9745;SDS011;4912;50.836;12.958;2024-02-26T14:07:32;13.57;;;7.72;;
9745;SDS011;4912;50.836;12.958;2024-02-26T14:10:04;12.82;;;8.10;;
9745;SDS011;4912;50.836;12.958;2024-02-26T14:12:37;11.27;;;7.30;;
9745;SDS011;4912;50.836;12.958;2024-02-26T14:15:09;12.15;;;7.57;;
9745;SDS011;4912;50.836;12.958;2024-02-26T14:17:43;12.85;;;8.40;;
9745;SDS011;4912;50.836;12.958;2024-02-26T14:20:20;12.65;;;7.90;;
9745;SDS011;4912;50.836;12.958;2024-02-26T14:22:52;12.27;;;8.10;;
9745;SDS011;4912;50.836;12.958;2024-02-26T14:25:23;12.85;;;8.30;;
9745;SDS011;4912;50.836;12.958;2024-02-26T14:27:57;11.40;;;7.47;;
9745;SDS011;4912;50.836;12.958;2024-02-26T14:30:27;14.52;;;8.55;;
9745;SDS011;4912;50.836;12.958;2024-02-26T14:33:02;17.92;;;8.32;;
9745;SDS011;4912;50.836;12.958;2024-02-26T14:35:33;14.35;;;8.43;;
9745;SDS011;4912;50.836;12.958;2024-02-26T14:40:35;17.23;;;10.43;;
9745;SDS011;4912;50.836;12.958;2024-02-26T14:43:05;18.63;;;10.73;;
9745;SDS011;4912;50.836;12.958;2024-02-26T14:45:36;20.33;;;12.10;;
9745;SDS011;4912;50.836;12.958;2024-02-26T14:48:11;16.25;;;9.23;;
9745;SDS011;4912;50.836;12.958;2024-02-26T14:50:42;14.73;;;9.55;;
9745;SDS011;4912;50.836;12.958;2024-02-26T14:53:13;17.83;;;9.60;;
9745;SDS011;4912;50.836;12.958;2024-02-26T14:55:44;13.32;;;9.30;;
9745;SDS011;4912;50.836;12.958;2024-02-26T14:58:15;15.48;;;10.27;;
9745;SDS011;4912;50.836;12.958;2024-02-26T15:03:20;18.10;;;10.65;;
9745;SDS011;4912;50.836;12.958;2024-02-26T15:05:51;17.10;;;11.32;;
9745;SDS011;4912;50.836;12.958;2024-02-26T15:08:22;18.10;;;12.23;;
9745;SDS011;4912;50.836;12.958;2024-02-26T15:10:53;20.13;;;12.98;;
9745;SDS011;4912;50.836;12.958;2024-02-26T15:13:25;21.77;;;15.15;;
9745;SDS011;4912;50.836;12.958;2024-02-26T15:15:58;18.65;;;12.45;;
9745;SDS011;4912;50.836;12.958;2024-02-26T15:18:32;19.13;;;12.93;;
9745;SDS011;4912;50.836;12.958;2024-02-26T15:21:04;16.63;;;11.93;;
9745;SDS011;4912;50.836;12.958;2024-02-26T15:23:35;23.88;;;15.68;;
9745;SDS011;4912;50.836;12.958;2024-02-26T15:26:17;21.80;;;12.30;;
9745;SDS011;4912;50.836;12.958;2024-02-26T15:28:49;16.13;;;11.48;;
9745;SDS011;4912;50.836;12.958;2024-02-26T15:31:20;18.98;;;11.60;;
9745;SDS011;4912;50.836;12.958;2024-02-26T15:33:54;17.83;;;11.88;;
9745;SDS011;4912;50.836;12.958;2024-02-26T15:36:25;16.75;;;11.90;;
9745;SDS011;4912;50.836;12.958;2024-02-26T15:38:56;16.75;;;11.45;;
9745;SDS011;4912;50.836;12.958;2024-02-26T15:43:59;16.75;;;10.88;;
9745;SDS011;4912;50.836;12.958;2024-02-26T15:46:30;16.92;;;11.52;;
9745;SDS011;4912;50.836;12.958;2024-02-26T15:49:05;20.25;;;12.18;;
9745;SDS011;4912;50.836;12.958;2024-02-26T15:51:41;19.02;;;13.10;;
9745;SDS011;4912;50.836;12.958;2024-02-26T15:54:12;18.63;;;12.50;;
9745;SDS011;4912;50.836;12.958;2024-02-26T15:56:45;20.23;;;13.02;;
9745;SDS011;4912;50.836;12.958;2024-02-26T15:59:21;21.65;;;13.57;;
9745;SDS011;4912;50.836;12.958;2024-02-26T16:01:52;19.05;;;12.75;;
9745;SDS011;4912;50.836;12.958;2024-02-26T16:04:25;20.35;;;13.50;;
9745;SDS011;4912;50.836;12.958;2024-02-26T16:06:58;18.88;;;12.98;;
9745;SDS011;4912;50.836;12.958;2024-02-26T16:09:37;21.52;;;13.27;;